createdAt,value
2019-05-01T00:00:16.430Z,22.32
2019-05-01T00:03:13.542Z,23.05
2019-05-01T00:05:44.417Z,22.70
2019-05-01T00:08:12.787Z,22.32
2019-05-01T00:10:39.950Z,23.20
2019-05-01T00:13:17.926Z,25.20
2019-05-01T00:15:45.206Z,24.23
2019-05-01T00:18:13.377Z,31.12
2019-05-01T00:20:41.366Z,23.35
2019-05-01T00:23:09.650Z,23.73
2019-05-01T00:25:37.843Z,24.20
2019-05-01T00:28:06.151Z,24.72
2019-05-01T00:30:35.282Z,23.42
2019-05-01T00:33:03.725Z,25.20
2019-05-01T00:35:31.091Z,22.17
2019-05-01T00:37:58.156Z,23.32
2019-05-01T00:40:25.536Z,22.98
2019-05-01T00:42:52.634Z,22.82
2019-05-01T00:45:19.614Z,22.50
2019-05-01T00:47:49.009Z,23.22
2019-05-01T00:50:18.319Z,23.50
2019-05-01T00:52:50.041Z,23.67
2019-05-01T00:55:36.637Z,23.95
2019-05-01T00:58:15.863Z,24.85
2019-05-01T01:01:03.741Z,22.62
2019-05-01T01:03:32.074Z,23.15
2019-05-01T01:06:00.136Z,24.77
2019-05-01T01:08:33.278Z,25.55
2019-05-01T01:11:01.202Z,22.77
2019-05-01T01:13:28.141Z,21.20
2019-05-01T01:15:55.334Z,23.05
2019-05-01T01:18:22.298Z,24.87
2019-05-01T01:20:50.577Z,23.25
2019-05-01T01:23:18.855Z,23.15
2019-05-01T01:25:47.080Z,22.90
2019-05-01T01:28:19.814Z,23.18
2019-05-01T01:30:56.092Z,22.30
2019-05-01T01:33:18.824Z,22.15
2019-05-01T01:35:47.510Z,21.73
2019-05-01T01:38:16.626Z,22.32
2019-05-01T01:40:45.074Z,24.15
2019-05-01T01:43:38.814Z,21.70
2019-05-01T01:46:09.219Z,22.30
2019-05-01T01:48:37.346Z,22.55
2019-05-01T01:51:04.869Z,23.45
2019-05-01T01:53:33.694Z,22.52
2019-05-01T01:56:02.175Z,23.70
2019-05-01T01:58:30.659Z,23.10
2019-05-01T02:01:37.845Z,23.55
2019-05-01T02:04:16.013Z,22.90
2019-05-01T02:06:44.753Z,22.67
2019-05-01T02:09:12.934Z,23.87
2019-05-01T02:11:41.085Z,23.27
2019-05-01T02:14:19.711Z,21.30
2019-05-01T02:16:53.577Z,22.45
2019-05-01T02:19:21.739Z,23.57
2019-05-01T02:21:48.806Z,23.65
2019-05-01T02:24:16.147Z,22.95
2019-05-01T02:26:50.832Z,24.35
2019-05-01T02:29:24.831Z,25.12
2019-05-01T02:31:54.896Z,24.18
2019-05-01T02:34:24.771Z,23.20
2019-05-01T02:36:56.133Z,23.92
2019-05-01T02:39:25.117Z,22.15
2019-05-01T02:42:14.608Z,23.22
2019-05-01T02:44:48.196Z,24.25
2019-05-01T02:47:24.848Z,24.23
2019-05-01T02:49:57.087Z,21.60
2019-05-01T02:52:32.364Z,24.37
2019-05-01T02:55:05.058Z,23.45
2019-05-01T02:57:35.636Z,23.83
2019-05-01T03:00:07.286Z,24.10
2019-05-01T03:02:37.196Z,23.75
2019-05-01T03:05:06.856Z,23.60
2019-05-01T03:07:37.123Z,23.92
2019-05-01T03:10:09.160Z,23.35
2019-05-01T03:12:38.925Z,25.75
2019-05-01T03:15:06.839Z,25.97
2019-05-01T03:17:58.042Z,24.35
2019-05-01T03:20:32.592Z,24.77
2019-05-01T03:23:29.671Z,24.37
2019-05-01T03:25:58.066Z,24.87
2019-05-01T03:28:29.134Z,24.67
2019-05-01T03:30:57.684Z,27.37
2019-05-01T03:33:26.199Z,26.02
2019-05-01T03:35:54.661Z,25.65
2019-05-01T03:38:23.879Z,28.05
2019-05-01T03:40:52.871Z,28.87
2019-05-01T03:43:21.394Z,29.37
2019-05-01T03:45:50.766Z,27.48
2019-05-01T03:48:19.945Z,27.35
2019-05-01T03:50:47.641Z,30.97
2019-05-01T03:53:16.447Z,28.38
2019-05-01T03:55:48.007Z,27.67
2019-05-01T03:58:17.350Z,29.27
2019-05-01T04:00:56.274Z,31.40
2019-05-01T04:03:35.919Z,31.00
2019-05-01T04:06:12.495Z,28.23
2019-05-01T04:08:40.912Z,29.37
2019-05-01T04:11:10.585Z,31.17
2019-05-01T04:13:38.590Z,31.05
2019-05-01T04:16:06.528Z,29.92
2019-05-01T04:18:34.350Z,33.48
2019-05-01T04:21:03.078Z,32.55
2019-05-01T04:23:33.656Z,31.73
2019-05-01T04:26:02.114Z,33.92
2019-05-01T04:28:40.407Z,29.82
2019-05-01T04:31:26.974Z,30.80
2019-05-01T04:33:57.235Z,30.35
2019-05-01T04:36:31.266Z,32.73
2019-05-01T04:38:59.523Z,30.50
2019-05-01T04:41:26.583Z,30.70
2019-05-01T04:43:53.742Z,32.58
2019-05-01T04:46:21.066Z,31.55
2019-05-01T04:48:49.605Z,32.83
2019-05-01T04:51:18.183Z,32.38
2019-05-01T04:53:46.727Z,32.88
2019-05-01T04:56:15.026Z,32.45
2019-05-01T04:58:43.766Z,32.10
2019-05-01T05:01:12.677Z,33.60
2019-05-01T05:03:41.819Z,32.50
2019-05-01T05:06:11.066Z,34.08
2019-05-01T05:08:38.938Z,34.30
2019-05-01T05:11:11.923Z,31.52
2019-05-01T05:13:47.203Z,32.58
2019-05-01T05:16:22.611Z,31.60
2019-05-01T05:18:51.149Z,33.05
2019-05-01T05:21:19.779Z,34.33
2019-05-01T05:23:48.872Z,32.35
2019-05-01T05:26:17.190Z,34.58
2019-05-01T05:28:47.778Z,33.08
2019-05-01T05:31:18.741Z,34.70
2019-05-01T05:33:48.092Z,32.58
2019-05-01T05:36:16.315Z,35.38
2019-05-01T05:39:01.054Z,32.05
2019-05-01T05:41:30.254Z,32.03
2019-05-01T05:43:58.555Z,30.85
2019-05-01T05:46:28.757Z,31.07
2019-05-01T05:48:56.919Z,30.08
2019-05-01T05:51:37.506Z,30.17
2019-05-01T05:54:29.629Z,31.02
2019-05-01T05:57:01.773Z,29.82
2019-05-01T05:59:33.795Z,31.30
2019-05-01T06:02:29.790Z,30.50
2019-05-01T06:05:07.977Z,31.62
2019-05-01T06:07:43.204Z,32.93
2019-05-01T06:10:31.113Z,31.33
2019-05-01T06:13:11.026Z,31.87
2019-05-01T06:16:05.254Z,31.33
2019-05-01T06:18:43.254Z,31.93
2019-05-01T06:21:19.893Z,32.17
2019-05-01T06:24:07.714Z,34.67
2019-05-01T06:26:37.756Z,33.90
2019-05-01T06:29:06.405Z,32.73
2019-05-01T06:31:34.976Z,32.63
2019-05-01T06:34:03.369Z,35.45
2019-05-01T06:36:32.021Z,32.45
2019-05-01T06:39:01.007Z,34.43
2019-05-01T06:41:39.316Z,34.18
2019-05-01T06:44:33.568Z,34.00
2019-05-01T06:47:17.753Z,34.03
2019-05-01T06:50:08.498Z,32.70
2019-05-01T06:52:38.670Z,34.27
2019-05-01T06:55:07.125Z,34.38
2019-05-01T06:57:38.288Z,34.67
2019-05-01T07:00:09.433Z,34.90
2019-05-01T07:02:37.423Z,35.43
2019-05-01T07:05:08.963Z,34.45
2019-05-01T07:07:37.563Z,34.40
2019-05-01T07:10:06.182Z,34.75
2019-05-01T07:12:35.053Z,35.73
2019-05-01T07:15:05.570Z,34.73
2019-05-01T07:17:33.319Z,33.38
2019-05-01T07:20:16.791Z,34.63
2019-05-01T07:22:45.797Z,31.80
2019-05-01T07:25:13.814Z,33.83
2019-05-01T07:27:44.226Z,32.40
2019-05-01T07:30:25.566Z,34.92
2019-05-01T07:32:54.188Z,34.95
2019-05-01T07:35:22.855Z,33.83
2019-05-01T07:37:51.026Z,33.20
2019-05-01T07:40:22.113Z,33.63
2019-05-01T07:42:55.076Z,33.05
2019-05-01T07:45:43.478Z,33.45
2019-05-01T07:48:16.662Z,34.33
2019-05-01T07:50:44.364Z,34.15
2019-05-01T07:53:11.808Z,33.50
2019-05-01T07:55:39.011Z,32.93
2019-05-01T07:58:10.376Z,33.05
2019-05-01T08:00:45.812Z,32.58
2019-05-01T08:03:14.540Z,33.23
2019-05-01T08:05:45.418Z,31.75
2019-05-01T08:08:13.528Z,33.05
2019-05-01T08:10:41.808Z,33.38
2019-05-01T08:13:08.851Z,33.40
2019-05-01T08:15:36.807Z,34.30
2019-05-01T08:18:14.220Z,32.28
2019-05-01T08:20:45.730Z,33.40
2019-05-01T08:23:14.675Z,31.35
2019-05-01T08:25:42.886Z,32.08
2019-05-01T08:28:16.883Z,30.82
2019-05-01T08:31:13.570Z,30.20
2019-05-01T08:34:01.406Z,29.23
2019-05-01T08:36:30.383Z,29.55
2019-05-01T08:38:57.653Z,27.87
2019-05-01T08:41:27.159Z,27.60
2019-05-01T08:43:55.902Z,28.27
2019-05-01T08:46:46.874Z,25.85
2019-05-01T08:49:49.476Z,26.82
2019-05-01T08:52:15.409Z,27.40
2019-05-01T08:54:43.477Z,27.82
2019-05-01T08:57:11.832Z,28.35
2019-05-01T08:59:39.923Z,28.85
2019-05-01T09:02:09.830Z,29.25
2019-05-01T09:04:38.132Z,28.52
2019-05-01T09:07:06.613Z,29.00
2019-05-01T09:09:34.780Z,27.50
2019-05-01T09:12:02.057Z,28.07
2019-05-01T09:14:29.861Z,30.40
2019-05-01T09:16:59.135Z,28.35
2019-05-01T09:19:27.433Z,27.50
2019-05-01T09:21:55.762Z,30.95
2019-05-01T09:24:27.949Z,30.00
2019-05-01T09:27:18.834Z,29.02
2019-05-01T09:29:52.854Z,29.55
2019-05-01T09:32:27.447Z,29.48
2019-05-01T09:34:58.416Z,29.40
2019-05-01T09:37:26.607Z,29.25
2019-05-01T09:39:54.761Z,28.38
2019-05-01T09:42:23.653Z,28.57
2019-05-01T09:44:50.766Z,29.72
2019-05-01T09:47:18.805Z,29.10
2019-05-01T09:49:48.825Z,29.27
2019-05-01T09:52:45.054Z,29.12
2019-05-01T09:55:23.182Z,31.40
2019-05-01T09:57:49.536Z,35.70
2019-05-01T10:00:25.608Z,33.85
2019-05-01T10:02:54.731Z,33.10
2019-05-01T10:05:29.082Z,38.02
2019-05-01T10:07:54.657Z,38.15
2019-05-01T10:10:24.854Z,39.27
2019-05-01T10:12:52.538Z,39.20
2019-05-01T10:15:24.830Z,37.35
2019-05-01T10:17:53.071Z,36.28
2019-05-01T10:20:21.442Z,37.60
2019-05-01T10:22:50.545Z,39.63
2019-05-01T10:25:22.327Z,38.20
2019-05-01T10:27:56.499Z,41.50
2019-05-01T10:30:37.555Z,41.37
2019-05-01T10:33:10.900Z,39.20
2019-05-01T10:36:01.075Z,39.35
2019-05-01T10:38:28.851Z,39.98
2019-05-01T10:40:56.615Z,39.00
2019-05-01T10:43:27.676Z,36.40
2019-05-01T10:45:56.530Z,39.23
2019-05-01T10:48:25.324Z,38.17
2019-05-01T10:50:52.474Z,36.58
2019-05-01T10:53:19.740Z,42.17
2019-05-01T10:55:46.962Z,40.70
2019-05-01T10:58:20.329Z,39.78
2019-05-01T11:00:51.587Z,40.67
2019-05-01T11:03:23.387Z,36.93
2019-05-01T11:05:56.065Z,40.47
2019-05-01T11:08:22.119Z,40.13
2019-05-01T11:10:50.778Z,41.73
2019-05-01T11:13:23.061Z,43.57
2019-05-01T11:15:51.586Z,43.07
2019-05-01T11:18:20.269Z,45.60
2019-05-01T11:20:48.451Z,44.60
2019-05-01T11:23:16.862Z,45.38
2019-05-01T11:25:45.585Z,45.67
2019-05-01T11:28:14.375Z,46.97
2019-05-01T11:30:42.527Z,45.70
2019-05-01T11:33:28.299Z,48.30
2019-05-01T11:36:11.739Z,46.00
2019-05-01T11:39:17.086Z,43.90
2019-05-01T11:41:51.238Z,47.07
2019-05-01T11:44:21.030Z,47.57
2019-05-01T11:46:54.182Z,45.10
2019-05-01T11:49:22.847Z,46.60
2019-05-01T11:51:51.596Z,44.93
2019-05-01T11:54:21.007Z,45.27
2019-05-01T11:56:50.675Z,47.53
2019-05-01T11:59:18.559Z,46.10
2019-05-01T12:01:46.018Z,44.70
2019-05-01T12:04:14.599Z,46.60
2019-05-01T12:06:42.859Z,45.50
2019-05-01T12:09:15.809Z,47.63
2019-05-01T12:11:46.506Z,47.07
2019-05-01T12:14:14.972Z,46.30
2019-05-01T12:17:01.611Z,44.73
2019-05-01T12:19:30.374Z,45.10
2019-05-01T12:21:58.950Z,46.10
2019-05-01T12:24:27.130Z,46.00
2019-05-01T12:26:55.964Z,47.30
2019-05-01T12:29:25.434Z,45.60
2019-05-01T12:31:54.307Z,43.30
2019-05-01T12:34:21.372Z,44.03
2019-05-01T12:36:52.361Z,48.47
2019-05-01T12:39:21.514Z,45.50
2019-05-01T12:41:54.207Z,49.60
2019-05-01T12:44:22.271Z,48.00
2019-05-01T12:47:07.111Z,48.17
2019-05-01T12:49:35.226Z,47.60
2019-05-01T12:52:10.513Z,45.93
2019-05-01T12:54:46.891Z,46.60
2019-05-01T12:57:16.036Z,46.27
2019-05-01T12:59:47.702Z,47.50
2019-05-01T13:02:14.881Z,48.60
2019-05-01T13:04:41.971Z,46.40
2019-05-01T13:07:09.579Z,52.20
2019-05-01T13:09:36.983Z,50.23
2019-05-01T13:12:08.621Z,48.37
2019-05-01T13:14:36.597Z,49.83
2019-05-01T13:17:04.794Z,51.23
2019-05-01T13:19:33.103Z,49.23
2019-05-01T13:22:01.162Z,50.60
2019-05-01T13:24:30.481Z,51.80
2019-05-01T13:27:13.712Z,50.07
2019-05-01T13:30:13.512Z,52.67
2019-05-01T13:32:46.901Z,54.40
2019-05-01T13:35:15.223Z,52.50
2019-05-01T13:37:42.424Z,52.30
2019-05-01T13:40:10.485Z,50.67
2019-05-01T13:42:37.650Z,50.80
2019-05-01T13:45:09.219Z,50.03
2019-05-01T13:47:37.287Z,49.47
2019-05-01T13:50:05.820Z,48.27
2019-05-01T13:52:34.545Z,51.30
2019-05-01T13:55:03.302Z,50.23
2019-05-01T13:57:31.242Z,51.60
2019-05-01T14:00:03.768Z,54.87
2019-05-01T14:02:32.200Z,50.10
2019-05-01T14:05:00.299Z,53.00
2019-05-01T14:07:29.186Z,51.30
2019-05-01T14:09:56.386Z,52.60
2019-05-01T14:12:23.646Z,49.50
2019-05-01T14:14:50.833Z,49.33
2019-05-01T14:17:18.179Z,49.37
2019-05-01T14:19:57.911Z,47.20
2019-05-01T14:22:48.650Z,47.07
2019-05-01T14:25:17.022Z,46.03
2019-05-01T14:27:48.400Z,47.73
2019-05-01T14:30:16.953Z,47.13
2019-05-01T14:32:45.034Z,47.93
2019-05-01T14:35:13.387Z,44.40
2019-05-01T14:37:45.575Z,44.47
2019-05-01T14:40:13.227Z,44.10
2019-05-01T14:42:42.584Z,43.50
2019-05-01T14:45:10.507Z,43.80
2019-05-01T14:47:42.104Z,45.60
2019-05-01T14:50:10.554Z,43.83
2019-05-01T14:52:38.538Z,44.60
2019-05-01T14:55:07.786Z,43.90
2019-05-01T14:57:37.686Z,48.60
2019-05-01T15:00:07.119Z,45.27
2019-05-01T15:02:35.274Z,45.47
2019-05-01T15:05:04.197Z,47.07
2019-05-01T15:07:42.833Z,43.90
2019-05-01T15:10:03.505Z,47.70
2019-05-01T15:12:32.526Z,45.17
2019-05-01T15:15:20.460Z,44.77
2019-05-01T15:18:05.784Z,42.73
2019-05-01T15:20:36.038Z,44.90
2019-05-01T15:23:03.598Z,44.67
2019-05-01T15:25:30.851Z,46.77
2019-05-01T15:27:58.510Z,45.77
2019-05-01T15:30:26.998Z,44.30
2019-05-01T15:32:57.737Z,38.47
2019-05-01T15:35:26.111Z,41.40
2019-05-01T15:37:56.957Z,41.40
2019-05-01T15:40:40.790Z,42.60
2019-05-01T15:43:29.167Z,44.37
2019-05-01T15:45:57.507Z,45.00
2019-05-01T15:48:26.314Z,45.10
2019-05-01T15:50:53.522Z,45.17
2019-05-01T15:53:20.674Z,47.53
2019-05-01T15:55:55.743Z,47.47
2019-05-01T15:58:22.962Z,48.20
2019-05-01T16:00:50.542Z,47.53
2019-05-01T16:03:17.913Z,49.20
2019-05-01T16:05:50.635Z,50.00
2019-05-01T16:08:19.493Z,46.77
2019-05-01T16:10:56.140Z,47.23
2019-05-01T16:13:29.264Z,48.47
2019-05-01T16:15:57.434Z,45.13
2019-05-01T16:18:25.941Z,43.87
2019-05-01T16:20:54.935Z,48.63
2019-05-01T16:23:23.352Z,46.20
2019-05-01T16:25:54.243Z,47.07
2019-05-01T16:28:21.878Z,46.40
2019-05-01T16:30:49.626Z,46.23
2019-05-01T16:33:17.143Z,48.20
2019-05-01T16:35:44.765Z,43.90
2019-05-01T16:38:23.256Z,47.67
2019-05-01T16:41:00.852Z,43.60
2019-05-01T16:43:29.225Z,41.77
2019-05-01T16:45:59.662Z,41.60
2019-05-01T16:48:28.170Z,39.10
2019-05-01T16:50:56.790Z,41.40
2019-05-01T16:53:24.954Z,42.03
2019-05-01T16:55:53.658Z,40.60
2019-05-01T16:58:22.529Z,38.77
2019-05-01T17:01:02.625Z,37.27
2019-05-01T17:03:55.094Z,37.83
2019-05-01T17:06:34.631Z,35.00
2019-05-01T17:09:15.195Z,37.80
2019-05-01T17:11:42.972Z,36.60
2019-05-01T17:14:10.653Z,37.30
2019-05-01T17:16:39.310Z,36.30
2019-05-01T17:19:08.154Z,36.70
2019-05-01T17:21:36.478Z,35.70
2019-05-01T17:24:04.894Z,38.50
2019-05-01T17:26:33.130Z,36.73
2019-05-01T17:29:02.215Z,35.80
2019-05-01T17:31:33.309Z,36.07
2019-05-01T17:34:01.852Z,36.60
2019-05-01T17:36:29.722Z,37.30
2019-05-01T17:38:56.777Z,36.10
2019-05-01T17:41:27.015Z,35.80
2019-05-01T17:43:56.606Z,34.90
2019-05-01T17:46:23.255Z,34.40
2019-05-01T17:48:51.674Z,33.90
2019-05-01T17:51:20.350Z,33.97
2019-05-01T17:53:48.748Z,33.03
2019-05-01T17:56:23.530Z,32.33
2019-05-01T17:58:48.042Z,33.27
2019-05-01T18:01:33.390Z,32.33
2019-05-01T18:04:16.706Z,33.43
2019-05-01T18:06:48.090Z,33.87
2019-05-01T18:09:16.727Z,35.07
2019-05-01T18:11:47.261Z,33.60
2019-05-01T18:14:13.285Z,34.93
2019-05-01T18:16:46.353Z,34.17
2019-05-01T18:19:14.266Z,34.70
2019-05-01T18:21:46.598Z,37.67
2019-05-01T18:24:44.869Z,32.47
2019-05-01T18:27:38.979Z,34.67
2019-05-01T18:30:20.129Z,35.70
2019-05-01T18:32:51.942Z,35.90
2019-05-01T18:35:16.221Z,35.00
2019-05-01T18:37:51.215Z,33.67
2019-05-01T18:40:23.843Z,35.30
2019-05-01T18:42:51.417Z,35.57
2019-05-01T18:45:47.814Z,32.23
2019-05-01T18:48:15.669Z,33.83
2019-05-01T18:50:43.163Z,36.07
2019-05-01T18:53:12.562Z,34.00
2019-05-01T18:55:42.518Z,35.10
2019-05-01T18:58:10.818Z,32.43
2019-05-01T19:00:39.239Z,34.63
2019-05-01T19:03:07.699Z,33.03
2019-05-01T19:05:35.987Z,35.30
2019-05-01T19:08:04.622Z,34.53
2019-05-01T19:10:33.000Z,35.13
2019-05-01T19:13:01.341Z,34.57
2019-05-01T19:15:28.483Z,34.43
2019-05-01T19:17:55.906Z,33.57
2019-05-01T19:20:23.087Z,35.73
2019-05-01T19:22:50.256Z,36.17
2019-05-01T19:25:18.448Z,33.63
2019-05-01T19:27:51.311Z,34.87
2019-05-01T19:30:20.689Z,33.03
2019-05-01T19:32:48.875Z,38.57
2019-05-01T19:35:17.774Z,42.87
2019-05-01T19:37:45.927Z,35.07
2019-05-01T19:40:14.298Z,37.07
2019-05-01T19:42:43.213Z,35.23
2019-05-01T19:45:11.631Z,33.37
2019-05-01T19:47:39.783Z,34.77
2019-05-01T19:50:09.620Z,36.37
2019-05-01T19:52:37.932Z,36.97
2019-05-01T19:55:07.773Z,32.73
2019-05-01T19:57:34.910Z,35.67
2019-05-01T20:00:02.400Z,36.33
2019-05-01T20:02:29.817Z,35.63
2019-05-01T20:04:57.547Z,35.40
2019-05-01T20:07:26.168Z,36.50
2019-05-01T20:09:57.095Z,36.80
2019-05-01T20:12:25.680Z,38.50
2019-05-01T20:14:54.227Z,39.10
2019-05-01T20:17:22.506Z,37.00
2019-05-01T20:19:51.447Z,37.20
2019-05-01T20:22:20.321Z,39.43
2019-05-01T20:24:48.489Z,38.53
2019-05-01T20:27:16.644Z,39.00
2019-05-01T20:29:44.334Z,40.97
2019-05-01T20:32:11.990Z,40.37
2019-05-01T20:34:40.737Z,39.53
2019-05-01T20:37:08.764Z,38.50
2019-05-01T20:39:37.334Z,37.63
2019-05-01T20:42:05.841Z,39.10
2019-05-01T20:44:34.637Z,38.50
2019-05-01T20:47:03.981Z,41.87
2019-05-01T20:49:36.465Z,39.65
2019-05-01T20:52:03.836Z,40.53
2019-05-01T20:54:31.218Z,38.90
2019-05-01T20:57:03.468Z,39.42
2019-05-01T20:59:35.254Z,41.80
2019-05-01T21:02:07.678Z,36.93
2019-05-01T21:04:57.026Z,38.73
2019-05-01T21:07:30.597Z,39.00
2019-05-01T21:10:00.391Z,38.85
2019-05-01T21:12:28.354Z,38.38
2019-05-01T21:14:56.232Z,37.23
2019-05-01T21:17:27.863Z,39.48
2019-05-01T21:19:55.036Z,39.05
2019-05-01T21:22:23.429Z,42.27
2019-05-01T21:24:53.266Z,45.85
2019-05-01T21:27:21.855Z,42.90
2019-05-01T21:29:50.543Z,42.13
2019-05-01T21:32:23.603Z,42.33
2019-05-01T21:34:49.185Z,42.80
2019-05-01T21:37:17.765Z,40.83
2019-05-01T21:39:46.315Z,40.60
2019-05-01T21:42:15.947Z,40.48
2019-05-01T21:44:44.505Z,40.43
2019-05-01T21:47:13.746Z,41.28
2019-05-01T21:49:42.817Z,41.30
2019-05-01T21:52:09.942Z,40.78
2019-05-01T21:54:36.954Z,39.95
2019-05-01T21:57:05.306Z,39.20
2019-05-01T21:59:35.353Z,41.63
2019-05-01T22:02:05.498Z,40.05
2019-05-01T22:04:34.166Z,39.45
2019-05-01T22:07:03.040Z,40.60
2019-05-01T22:09:31.843Z,39.27
2019-05-01T22:12:00.452Z,38.00
2019-05-01T22:14:43.296Z,39.50
2019-05-01T22:17:18.831Z,38.73
2019-05-01T22:19:48.958Z,37.13
2019-05-01T22:22:31.442Z,38.23
2019-05-01T22:25:07.941Z,36.42
2019-05-01T22:27:39.757Z,38.67
2019-05-01T22:30:27.349Z,38.38
2019-05-01T22:32:56.218Z,40.45
2019-05-01T22:35:26.204Z,38.75
2019-05-01T22:37:54.316Z,35.33
2019-05-01T22:40:33.042Z,37.23
2019-05-01T22:43:01.027Z,35.40
2019-05-01T22:45:37.185Z,35.60
2019-05-01T22:48:10.527Z,34.73
2019-05-01T22:50:39.370Z,35.60
2019-05-01T22:53:12.504Z,31.12
2019-05-01T22:55:37.919Z,35.38
2019-05-01T22:58:06.205Z,34.23
2019-05-01T23:00:44.350Z,32.23
2019-05-01T23:03:20.671Z,34.45
2019-05-01T23:05:49.107Z,31.30
2019-05-01T23:08:17.652Z,32.28
2019-05-01T23:10:47.030Z,31.82
2019-05-01T23:13:16.698Z,32.53
2019-05-01T23:15:44.174Z,31.12
2019-05-01T23:18:15.374Z,31.00
2019-05-01T23:20:42.661Z,30.23
2019-05-01T23:23:10.315Z,30.05
2019-05-01T23:25:41.192Z,29.27
2019-05-01T23:28:09.230Z,29.20
2019-05-01T23:30:37.815Z,28.98
2019-05-01T23:33:07.926Z,30.30
2019-05-01T23:35:36.115Z,29.95
2019-05-01T23:38:04.243Z,29.35
2019-05-01T23:40:32.771Z,29.60
2019-05-01T23:43:01.186Z,29.57
2019-05-01T23:45:28.350Z,28.75
2019-05-01T23:47:55.318Z,28.98
2019-05-01T23:50:22.578Z,29.72
2019-05-01T23:52:49.636Z,29.75
2019-05-01T23:55:17.495Z,28.80
2019-05-01T23:57:45.650Z,31.23
